createdAt,value
2023-03-16T00:00:57.428Z,98598.81
2023-03-16T00:03:44.720Z,98605.59
2023-03-16T00:06:14.141Z,98610.06
2023-03-16T00:08:44.430Z,98613.78
2023-03-16T00:11:15.814Z,98602.88
2023-03-16T00:13:49.552Z,98600.06
2023-03-16T00:16:19.682Z,98591.38
2023-03-16T00:18:51.432Z,98605.22
2023-03-16T00:21:20.675Z,98611.09
2023-03-16T00:23:58.581Z,98609.56
2023-03-16T00:26:44.031Z,98613.63
2023-03-16T00:29:12.041Z,98611.56
2023-03-16T00:31:46.793Z,98607.75
2023-03-16T00:34:23.593Z,98604.63
2023-03-16T00:36:59.826Z,98613.31
2023-03-16T00:42:28.513Z,98617.28
2023-03-16T00:45:09.411Z,98620.41
2023-03-16T00:47:37.676Z,98628.63
2023-03-16T00:50:08.634Z,98625.59
2023-03-16T00:52:36.455Z,98632.66
2023-03-16T00:55:17.383Z,98627.75
2023-03-16T00:57:51.058Z,98632.78
2023-03-16T01:00:22.427Z,98624.41
2023-03-16T01:02:51.681Z,98563.25
2023-03-16T01:05:23.845Z,98634.31
2023-03-16T01:07:57.327Z,98639.19
2023-03-16T01:10:29.718Z,98645.09
2023-03-16T01:12:59.927Z,98645.31
2023-03-16T01:15:45.050Z,98637.28
2023-03-16T01:18:22.224Z,98614.84
2023-03-16T01:21:02.026Z,98633.59
2023-03-16T01:23:31.879Z,98633.97
2023-03-16T01:26:03.221Z,98639.66
2023-03-16T01:28:35.806Z,98632.94
2023-03-16T01:31:13.752Z,98626.97
2023-03-16T01:33:44.986Z,98624.94
2023-03-16T01:36:23.523Z,98625.38
2023-03-16T01:39:11.162Z,98617.25
2023-03-16T01:41:47.439Z,98628.25
2023-03-16T01:44:23.060Z,98620.75
2023-03-16T01:46:57.539Z,98619.97
2023-03-16T01:49:33.282Z,98607.69
2023-03-16T01:52:24.978Z,98621.75
2023-03-16T01:55:16.107Z,98634.00
2023-03-16T01:57:48.376Z,98630.28
2023-03-16T02:00:36.010Z,98638.50
2023-03-16T02:03:32.837Z,98625.22
2023-03-16T02:06:26.986Z,98636.66
2023-03-16T02:09:00.784Z,98635.25
2023-03-16T02:11:36.554Z,98623.34
2023-03-16T02:14:33.978Z,98647.41
2023-03-16T02:17:07.650Z,98651.06
2023-03-16T02:20:12.344Z,98651.31
2023-03-16T02:22:51.405Z,98653.91
2023-03-16T02:25:30.153Z,98667.84
2023-03-16T02:28:33.363Z,98666.84
2023-03-16T02:31:03.296Z,98671.13
2023-03-16T02:36:19.974Z,98646.41
2023-03-16T02:38:51.669Z,98651.19
2023-03-16T02:41:24.986Z,98666.72
2023-03-16T02:44:03.254Z,98675.28
2023-03-16T02:46:36.212Z,98669.31
2023-03-16T02:49:14.893Z,98675.94
2023-03-16T02:51:46.808Z,98674.03
2023-03-16T02:54:18.901Z,98674.81
2023-03-16T02:57:00.041Z,98661.81
2023-03-16T02:59:32.083Z,98681.16
2023-03-16T03:02:10.847Z,98680.97
2023-03-16T03:04:58.129Z,98683.75
2023-03-16T03:07:45.202Z,98658.44
2023-03-16T03:10:28.577Z,98660.56
2023-03-16T03:13:02.764Z,98661.28
2023-03-16T03:15:47.371Z,98675.38
2023-03-16T03:18:18.637Z,98682.16
2023-03-16T03:23:46.557Z,98689.41
2023-03-16T03:26:18.993Z,98701.19
2023-03-16T03:28:54.994Z,98702.09
2023-03-16T03:31:26.598Z,98708.69
2023-03-16T03:34:01.873Z,98695.75
2023-03-16T03:36:35.151Z,98725.31
2023-03-16T03:39:05.203Z,98699.97
2023-03-16T03:41:41.386Z,98720.56
2023-03-16T03:44:12.316Z,98718.66
2023-03-16T03:46:42.799Z,98720.72
2023-03-16T03:49:15.759Z,98721.16
2023-03-16T03:51:52.716Z,98722.34
2023-03-16T03:54:29.689Z,98723.88
2023-03-16T03:57:14.947Z,98731.09
2023-03-16T03:59:48.836Z,98730.75
2023-03-16T04:02:37.332Z,98741.66
2023-03-16T04:05:11.615Z,98750.03
2023-03-16T04:07:42.342Z,98747.81
2023-03-16T04:10:26.455Z,98740.78
2023-03-16T04:13:00.766Z,98751.78
2023-03-16T04:15:36.126Z,98757.47
2023-03-16T04:18:22.284Z,98763.38
2023-03-16T04:21:22.095Z,98742.00
2023-03-16T04:23:57.065Z,98744.00
2023-03-16T04:26:53.429Z,98753.06
2023-03-16T04:29:47.314Z,98773.44
2023-03-16T04:32:21.191Z,98767.31
2023-03-16T04:35:20.765Z,98753.69
2023-03-16T04:38:18.112Z,98755.19
2023-03-16T04:41:00.558Z,98782.53
2023-03-16T04:43:49.788Z,98781.72
2023-03-16T04:46:29.057Z,98718.56
2023-03-16T04:49:04.669Z,98783.75
2023-03-16T04:51:50.418Z,98782.94
2023-03-16T04:54:37.932Z,98782.56
2023-03-16T04:57:21.908Z,98773.47
2023-03-16T05:00:02.623Z,98778.41
2023-03-16T05:02:42.047Z,98774.00
2023-03-16T05:05:17.809Z,98782.75
2023-03-16T05:07:52.047Z,98780.91
2023-03-16T05:10:26.266Z,98794.75
2023-03-16T05:12:56.699Z,98804.31
2023-03-16T05:15:30.036Z,98793.50
2023-03-16T05:18:02.954Z,98800.44
2023-03-16T05:20:32.876Z,98797.59
2023-03-16T05:23:09.426Z,98795.22
2023-03-16T05:25:53.199Z,98810.66
2023-03-16T05:28:29.774Z,98796.41
2023-03-16T05:31:10.731Z,98814.44
2023-03-16T05:34:04.161Z,98813.91
2023-03-16T05:36:35.917Z,98803.06
2023-03-16T05:39:13.154Z,98827.19
2023-03-16T05:41:53.194Z,98833.41
2023-03-16T05:44:49.494Z,98842.03
2023-03-16T05:47:45.663Z,98826.59
2023-03-16T05:50:24.571Z,98853.56
2023-03-16T05:52:55.493Z,98854.13
2023-03-16T05:55:29.900Z,98854.28
2023-03-16T05:58:05.865Z,98844.84
2023-03-16T06:00:39.947Z,98840.84
2023-03-16T06:03:20.030Z,98833.63
2023-03-16T06:05:57.998Z,98831.72
2023-03-16T06:08:53.023Z,98827.78
2023-03-16T06:11:28.554Z,98828.06
2023-03-16T06:14:14.238Z,98810.16
2023-03-16T06:16:51.975Z,98835.00
2023-03-16T06:19:23.006Z,98839.19
2023-03-16T06:22:02.459Z,98853.84
2023-03-16T06:24:39.260Z,98857.88
2023-03-16T06:27:11.244Z,98868.38
2023-03-16T06:29:58.582Z,98869.25
2023-03-16T06:32:46.173Z,98885.47
2023-03-16T06:35:16.024Z,98882.28
2023-03-16T06:37:53.931Z,98902.13
2023-03-16T06:40:57.448Z,98887.44
2023-03-16T06:43:33.535Z,98898.41
2023-03-16T06:46:05.158Z,98888.13
2023-03-16T06:48:36.021Z,98900.50
2023-03-16T06:51:10.417Z,98899.00
2023-03-16T06:53:45.388Z,98845.00
2023-03-16T06:56:15.037Z,98895.75
2023-03-16T06:58:53.508Z,98877.28
2023-03-16T07:01:25.827Z,98907.66
2023-03-16T07:03:58.167Z,98903.81
2023-03-16T07:06:30.560Z,98912.50
2023-03-16T07:09:05.708Z,98909.22
2023-03-16T07:14:27.791Z,98917.50
2023-03-16T07:17:01.710Z,98921.97
2023-03-16T07:19:40.218Z,98924.69
2023-03-16T07:22:14.948Z,98857.53
2023-03-16T07:24:46.321Z,98915.34
2023-03-16T07:27:16.262Z,98913.19
2023-03-16T07:29:55.312Z,98890.94
2023-03-16T07:32:24.027Z,98904.59
2023-03-16T07:34:54.314Z,98905.94
2023-03-16T07:37:33.480Z,98870.75
2023-03-16T07:40:12.646Z,98897.03
2023-03-16T07:42:43.539Z,98899.13
2023-03-16T07:45:30.144Z,98896.94
2023-03-16T07:48:00.039Z,98891.47
2023-03-16T07:50:55.159Z,98904.75
2023-03-16T07:53:29.138Z,98900.56
2023-03-16T07:56:22.657Z,98896.31
2023-03-16T07:59:05.579Z,98893.34
2023-03-16T08:01:43.303Z,98893.63
2023-03-16T08:04:28.165Z,98889.19
2023-03-16T08:07:00.359Z,98890.81
2023-03-16T08:09:39.429Z,98895.44
2023-03-16T08:12:13.658Z,98895.38
2023-03-16T08:14:41.655Z,98885.38
2023-03-16T08:17:22.685Z,98891.59
2023-03-16T08:20:09.459Z,98885.47
2023-03-16T08:22:42.339Z,98893.78
2023-03-16T08:25:17.328Z,98889.44
2023-03-16T08:28:01.258Z,98888.00
2023-03-16T08:31:00.998Z,98882.03
2023-03-16T08:33:45.090Z,98890.84
2023-03-16T08:36:31.461Z,98894.38
2023-03-16T08:39:09.218Z,98881.50
2023-03-16T08:41:48.428Z,98896.31
2023-03-16T08:44:44.061Z,98888.66
2023-03-16T08:47:22.664Z,98903.19
2023-03-16T08:52:37.835Z,98904.47
2023-03-16T08:55:08.345Z,98901.38
2023-03-16T08:57:38.476Z,98903.88
2023-03-16T09:00:15.376Z,98901.59
2023-03-16T09:02:51.297Z,98907.66
2023-03-16T09:05:26.587Z,98885.06
2023-03-16T09:08:12.127Z,98905.84
2023-03-16T09:10:49.866Z,98875.31
2023-03-16T09:13:20.229Z,98891.72
2023-03-16T09:15:52.128Z,98904.47
2023-03-16T09:18:28.538Z,98864.38
2023-03-16T09:21:13.217Z,98890.16
2023-03-16T09:23:46.265Z,98901.59
2023-03-16T09:26:17.263Z,98900.63
2023-03-16T09:28:52.206Z,98890.34
2023-03-16T09:31:24.088Z,98892.19
2023-03-16T09:33:54.851Z,98907.88
2023-03-16T09:36:29.961Z,98898.66
2023-03-16T09:39:08.354Z,98914.72
2023-03-16T09:42:18.184Z,98913.75
2023-03-16T09:45:18.006Z,98907.63
2023-03-16T09:47:57.721Z,98890.63
2023-03-16T09:50:47.141Z,98906.59
2023-03-16T09:53:34.021Z,98908.81
2023-03-16T09:56:11.246Z,98917.25
2023-03-16T09:58:44.417Z,98932.28
2023-03-16T10:01:56.059Z,98920.72
2023-03-16T10:05:11.627Z,98914.69
2023-03-16T10:08:11.776Z,98937.06
2023-03-16T10:11:21.105Z,98929.84
2023-03-16T10:14:04.327Z,98926.78
2023-03-16T10:16:55.112Z,98930.78
2023-03-16T10:19:42.791Z,98932.44
2023-03-16T10:22:49.446Z,98933.06
2023-03-16T10:25:36.833Z,98939.84
2023-03-16T10:28:05.164Z,98930.81
2023-03-16T10:30:48.465Z,98934.66
2023-03-16T10:33:36.947Z,98930.72
2023-03-16T10:36:25.823Z,98935.47
2023-03-16T10:39:27.680Z,98941.31
2023-03-16T10:41:59.224Z,98942.47
2023-03-16T10:44:43.741Z,98939.66
2023-03-16T10:47:28.313Z,98935.13
2023-03-16T10:49:59.265Z,98915.75
2023-03-16T10:52:45.809Z,98931.78
2023-03-16T10:55:35.188Z,98931.81
2023-03-16T10:58:05.409Z,98936.38
2023-03-16T11:00:43.441Z,98938.31
2023-03-16T11:03:39.801Z,98924.44
2023-03-16T11:06:11.573Z,98927.91
2023-03-16T11:08:46.325Z,98927.50
2023-03-16T11:11:22.685Z,98920.72
2023-03-16T11:14:00.179Z,98924.50
2023-03-16T11:16:58.039Z,98920.19
2023-03-16T11:19:32.602Z,98916.28
2023-03-16T11:22:24.578Z,98919.75
2023-03-16T11:25:20.052Z,98909.19
2023-03-16T11:28:15.602Z,98911.19
2023-03-16T11:31:14.981Z,98886.84
2023-03-16T11:33:46.219Z,98910.03
2023-03-16T11:36:33.799Z,98904.78
2023-03-16T11:39:21.209Z,98898.25
2023-03-16T11:42:32.071Z,98904.50
2023-03-16T11:45:28.640Z,98899.59
2023-03-16T11:48:23.262Z,98890.53
2023-03-16T11:51:20.750Z,98886.22
2023-03-16T11:54:21.412Z,98886.50
2023-03-16T11:56:59.014Z,98876.38
2023-03-16T12:00:09.148Z,98877.59
2023-03-16T12:03:14.814Z,98873.78
2023-03-16T12:06:22.915Z,98876.31
2023-03-16T12:08:57.851Z,98863.94
2023-03-16T12:11:41.988Z,98859.47
2023-03-16T12:14:33.359Z,98853.78
2023-03-16T12:17:15.411Z,98861.31
2023-03-16T12:20:02.971Z,98856.97
2023-03-16T12:22:33.703Z,98848.72
2023-03-16T12:25:26.088Z,98841.59
2023-03-16T12:28:00.726Z,98836.16
2023-03-16T12:30:46.033Z,98829.50
2023-03-16T12:33:55.549Z,98830.97
2023-03-16T12:36:57.699Z,98827.09
2023-03-16T12:39:38.421Z,98820.41
2023-03-16T12:42:31.835Z,98825.16
2023-03-16T12:45:34.922Z,98822.00
2023-03-16T12:51:25.644Z,98818.28
2023-03-16T12:54:09.196Z,98821.88
2023-03-16T12:56:51.352Z,98811.78
2023-03-16T12:59:28.782Z,98818.97
2023-03-16T13:02:07.338Z,98815.63
2023-03-16T13:04:44.564Z,98812.25
2023-03-16T13:07:28.165Z,98806.25
2023-03-16T13:10:17.689Z,98805.13
2023-03-16T13:12:48.557Z,98807.97
2023-03-16T13:15:34.578Z,98804.31
2023-03-16T13:18:21.189Z,98805.09
2023-03-16T13:20:54.363Z,98799.59
2023-03-16T13:23:31.678Z,98806.91
2023-03-16T13:26:21.935Z,98807.75
2023-03-16T13:29:00.782Z,98787.53
2023-03-16T13:31:41.107Z,98799.44
2023-03-16T13:34:17.874Z,98809.34
2023-03-16T13:37:01.787Z,98803.25
2023-03-16T13:39:33.542Z,98801.63
2023-03-16T13:42:24.993Z,98791.91
2023-03-16T13:45:02.315Z,98795.91
2023-03-16T13:47:30.252Z,98791.13
2023-03-16T13:50:11.356Z,98784.75
2023-03-16T13:52:44.823Z,98789.69
2023-03-16T13:55:29.710Z,98786.03
2023-03-16T13:58:06.174Z,98786.41
2023-03-16T14:00:40.994Z,98786.53
2023-03-16T14:03:18.097Z,98779.34
2023-03-16T14:08:48.236Z,98781.88
2023-03-16T14:11:21.975Z,98778.59
2023-03-16T14:13:56.637Z,98771.91
2023-03-16T14:16:34.032Z,98769.59
2023-03-16T14:19:12.663Z,98769.41
2023-03-16T14:21:52.419Z,98766.84
2023-03-16T14:24:50.540Z,98772.13
2023-03-16T14:27:25.655Z,98766.69
2023-03-16T14:30:21.146Z,98766.13
2023-03-16T14:33:11.766Z,98735.03
2023-03-16T14:35:44.884Z,98768.44
2023-03-16T14:38:54.861Z,98767.44
2023-03-16T14:41:49.045Z,98767.03
2023-03-16T14:44:34.337Z,98770.22
2023-03-16T14:47:06.083Z,98760.38
2023-03-16T14:49:45.755Z,98760.44
2023-03-16T14:52:35.456Z,98766.53
2023-03-16T14:55:17.900Z,98764.50
2023-03-16T14:57:55.626Z,98769.66
2023-03-16T15:00:29.378Z,98767.63
2023-03-16T15:03:30.201Z,98752.78
2023-03-16T15:06:04.317Z,98762.91
2023-03-16T15:08:43.213Z,98766.19
2023-03-16T15:11:24.400Z,98764.13
2023-03-16T15:14:14.999Z,98755.59
2023-03-16T15:16:49.365Z,98777.84
2023-03-16T15:19:31.918Z,98779.16
2023-03-16T15:22:02.841Z,98773.56
2023-03-16T15:24:35.006Z,98776.50
2023-03-16T15:27:05.259Z,98788.16
2023-03-16T15:29:37.905Z,98783.97
2023-03-16T15:32:17.747Z,98780.63
2023-03-16T15:34:54.508Z,98782.00
2023-03-16T15:37:30.721Z,98774.16
2023-03-16T15:40:00.158Z,98770.34
2023-03-16T15:42:33.480Z,98767.13
2023-03-16T15:45:01.483Z,98780.72
2023-03-16T15:47:29.695Z,98778.53
2023-03-16T15:50:00.962Z,98773.25
2023-03-16T15:52:34.671Z,98778.94
2023-03-16T15:55:11.161Z,98781.19
2023-03-16T15:57:42.728Z,98765.03
2023-03-16T16:00:38.663Z,98784.25
2023-03-16T16:03:17.224Z,98775.09
2023-03-16T16:05:47.770Z,98788.34
2023-03-16T16:08:23.720Z,98794.28
2023-03-16T16:10:58.442Z,98788.72
2023-03-16T16:13:43.407Z,98792.44
2023-03-16T16:16:26.570Z,98794.94
2023-03-16T16:18:58.333Z,98794.72
2023-03-16T16:21:32.420Z,98786.47
2023-03-16T16:24:03.039Z,98795.09
2023-03-16T16:26:49.899Z,98791.97
2023-03-16T16:29:23.337Z,98801.50
2023-03-16T16:31:52.664Z,98799.81
2023-03-16T16:34:32.085Z,98807.81
2023-03-16T16:37:03.452Z,98821.09
2023-03-16T16:39:34.972Z,98834.34
2023-03-16T16:42:15.306Z,98838.22
2023-03-16T16:44:49.353Z,98832.41
2023-03-16T16:47:37.609Z,98815.22
2023-03-16T16:50:25.931Z,98831.75
2023-03-16T16:52:57.402Z,98845.59
2023-03-16T16:55:32.302Z,98851.41
2023-03-16T16:58:01.315Z,98856.50
2023-03-16T17:00:34.090Z,98868.47
2023-03-16T17:03:25.125Z,98874.09
2023-03-16T17:05:59.070Z,98877.16
2023-03-16T17:08:29.684Z,98889.16
2023-03-16T17:11:01.417Z,98886.38
2023-03-16T17:13:42.036Z,98892.78
2023-03-16T17:16:19.561Z,98883.84
2023-03-16T17:18:50.069Z,98891.34
2023-03-16T17:21:29.922Z,98887.91
2023-03-16T17:24:16.741Z,98898.84
2023-03-16T17:27:01.718Z,98901.25
2023-03-16T17:29:40.529Z,98905.34
2023-03-16T17:32:28.502Z,98902.25
2023-03-16T17:34:59.621Z,98918.63
2023-03-16T17:40:32.417Z,98929.75
2023-03-16T17:43:01.271Z,98935.53
2023-03-16T17:45:33.454Z,98924.53
2023-03-16T17:48:04.729Z,98940.75
2023-03-16T17:50:37.416Z,98943.72
2023-03-16T17:53:23.795Z,98937.34
2023-03-16T17:56:06.649Z,98943.38
2023-03-16T17:58:35.712Z,98944.81
2023-03-16T18:01:08.149Z,98944.13
2023-03-16T18:03:48.978Z,98953.75
2023-03-16T18:06:33.417Z,98958.50
2023-03-16T18:09:05.952Z,98950.78
2023-03-16T18:11:48.275Z,98956.84
2023-03-16T18:14:46.569Z,98976.50
2023-03-16T18:17:20.513Z,98973.53
2023-03-16T18:19:51.220Z,98976.56
2023-03-16T18:22:25.121Z,98973.19
2023-03-16T18:27:37.313Z,98980.25
2023-03-16T18:30:06.414Z,98976.69
2023-03-16T18:32:34.258Z,98978.25
2023-03-16T18:35:09.966Z,98984.09
2023-03-16T18:37:44.609Z,98982.66
2023-03-16T18:43:02.515Z,98980.56
2023-03-16T18:45:33.013Z,98983.47
2023-03-16T18:48:06.070Z,98984.09
2023-03-16T18:50:34.242Z,98989.53
2023-03-16T18:53:02.667Z,98992.88
2023-03-16T18:55:33.840Z,98998.44
2023-03-16T18:58:18.079Z,99008.31
2023-03-16T19:00:56.368Z,99004.75
2023-03-16T19:03:32.466Z,99012.22
2023-03-16T19:06:10.092Z,99012.69
2023-03-16T19:08:47.564Z,99021.09
2023-03-16T19:11:19.131Z,99005.47
2023-03-16T19:13:54.220Z,99022.81
2023-03-16T19:16:34.639Z,99028.31
2023-03-16T19:19:12.626Z,99026.94
2023-03-16T19:21:45.102Z,99014.75
2023-03-16T19:24:46.215Z,99034.88
2023-03-16T19:27:26.727Z,99037.75
2023-03-16T19:29:55.877Z,99048.69
2023-03-16T19:32:26.427Z,99054.22
2023-03-16T19:35:02.844Z,99055.16
2023-03-16T19:40:27.584Z,99056.88
2023-03-16T19:43:00.544Z,99056.00
2023-03-16T19:45:36.724Z,99062.50
2023-03-16T19:48:17.016Z,99062.31
2023-03-16T19:50:51.779Z,99058.53
2023-03-16T19:53:23.166Z,99065.03
2023-03-16T19:55:56.953Z,99061.78
2023-03-16T19:58:43.266Z,99072.00
2023-03-16T20:01:26.542Z,99059.53
2023-03-16T20:04:00.700Z,99069.31
2023-03-16T20:06:33.296Z,99044.56
2023-03-16T20:09:04.686Z,99041.44
2023-03-16T20:11:33.889Z,99058.78
2023-03-16T20:14:05.268Z,99058.19
2023-03-16T20:16:36.401Z,99059.28
2023-03-16T20:19:14.019Z,99043.75
2023-03-16T20:21:47.116Z,99056.47
2023-03-16T20:24:38.906Z,99069.41
2023-03-16T20:27:06.604Z,99071.56
2023-03-16T20:29:53.014Z,99082.88
2023-03-16T20:32:29.279Z,99074.63
2023-03-16T20:34:59.348Z,99050.34
2023-03-16T20:37:33.497Z,99081.81
2023-03-16T20:40:15.959Z,99079.50
2023-03-16T20:42:52.005Z,99084.00
2023-03-16T20:45:28.933Z,99081.50
2023-03-16T20:48:03.963Z,99076.88
2023-03-16T20:50:36.690Z,99072.69
2023-03-16T20:53:07.362Z,99091.22
2023-03-16T20:55:48.231Z,99096.00
2023-03-16T20:58:31.584Z,99091.66
2023-03-16T21:03:54.336Z,99100.59
2023-03-16T21:06:32.344Z,99092.75
2023-03-16T21:09:03.430Z,99092.84
2023-03-16T21:11:55.137Z,99111.81
2023-03-16T21:14:42.248Z,99116.09
2023-03-16T21:17:45.526Z,99104.88
2023-03-16T21:20:30.920Z,99109.28
2023-03-16T21:23:03.781Z,99094.09
2023-03-16T21:25:47.826Z,99115.63
2023-03-16T21:28:20.033Z,99111.88
2023-03-16T21:30:51.978Z,99115.13
2023-03-16T21:33:41.715Z,99113.53
2023-03-16T21:36:20.335Z,99102.38
2023-03-16T21:38:49.178Z,99123.16
2023-03-16T21:41:22.148Z,99055.78
2023-03-16T21:43:57.134Z,99110.81
2023-03-16T21:46:31.532Z,99115.66
2023-03-16T21:51:43.765Z,99123.16
2023-03-16T21:54:19.572Z,99119.81
2023-03-16T21:59:32.595Z,99128.59
2023-03-16T22:02:04.296Z,99120.63
2023-03-16T22:04:44.404Z,99133.38
2023-03-16T22:07:20.262Z,99136.34
2023-03-16T22:09:50.836Z,99133.56
2023-03-16T22:12:24.659Z,99143.91
2023-03-16T22:15:00.589Z,99148.38
2023-03-16T22:17:29.569Z,99143.59
2023-03-16T22:20:00.139Z,99135.13
2023-03-16T22:22:32.078Z,99151.16
2023-03-16T22:25:02.817Z,99139.34
2023-03-16T22:27:34.027Z,99137.41
2023-03-16T22:30:14.078Z,99140.84
2023-03-16T22:32:45.772Z,99129.16
2023-03-16T22:35:46.966Z,99137.63
2023-03-16T22:38:21.632Z,99134.72
2023-03-16T22:40:52.017Z,99143.34
2023-03-16T22:43:31.170Z,99145.97
2023-03-16T22:46:03.280Z,99151.22
2023-03-16T22:48:34.891Z,99146.53
2023-03-16T22:51:10.658Z,99133.91
2023-03-16T22:53:51.624Z,99128.63
2023-03-16T22:56:32.739Z,99111.00
2023-03-16T22:59:13.691Z,99121.16
2023-03-16T23:01:48.994Z,99112.25
2023-03-16T23:04:32.911Z,99123.00
2023-03-16T23:07:04.065Z,99116.25
2023-03-16T23:09:35.832Z,99106.66
2023-03-16T23:12:11.959Z,99119.53
2023-03-16T23:14:49.409Z,99113.41
2023-03-16T23:17:30.304Z,99131.72
2023-03-16T23:20:11.877Z,99127.56
2023-03-16T23:22:45.258Z,99126.81
2023-03-16T23:25:30.362Z,99122.59
2023-03-16T23:28:12.532Z,99125.97
2023-03-16T23:33:35.003Z,99125.22
2023-03-16T23:36:06.076Z,99123.19
2023-03-16T23:38:34.243Z,99116.13
2023-03-16T23:41:07.782Z,99116.97
2023-03-16T23:43:37.691Z,99116.44
2023-03-16T23:46:08.907Z,99123.25
2023-03-16T23:48:49.559Z,99118.84
2023-03-16T23:51:29.018Z,99124.34
2023-03-16T23:54:00.848Z,99138.00
2023-03-16T23:56:55.122Z,99136.16
2023-03-16T23:59:28.049Z,99128.72
